sensor_id;sensor_type;location;lat;lon;timestamp;P1;durP1;ratioP1;P2;durP2;ratioP2
6093;SDS011;19964;42.060;24.700;2023-08-21T00:01:46;6.95;;;6.45;;
6093;SDS011;19964;42.060;24.700;2023-08-21T00:04:12;9.68;;;7.00;;
6093;SDS011;19964;42.060;24.700;2023-08-21T00:06:39;7.38;;;6.68;;
6093;SDS011;19964;42.060;24.700;2023-08-21T00:09:06;7.65;;;6.82;;
6093;SDS011;19964;42.060;24.700;2023-08-21T00:11:33;8.65;;;7.00;;
6093;SDS011;19964;42.060;24.700;2023-08-21T00:14:00;7.95;;;7.30;;
6093;SDS011;19964;42.060;24.700;2023-08-21T00:16:27;7.72;;;6.85;;
6093;SDS011;19964;42.060;24.700;2023-08-21T00:18:55;9.40;;;7.15;;
6093;SDS011;19964;42.060;24.700;2023-08-21T00:21:22;7.68;;;6.97;;
6093;SDS011;19964;42.060;24.700;2023-08-21T00:23:49;7.60;;;6.60;;
6093;SDS011;19964;42.060;24.700;2023-08-21T00:26:16;7.20;;;6.60;;
6093;SDS011;19964;42.060;24.700;2023-08-21T00:28:42;11.27;;;6.55;;
6093;SDS011;19964;42.060;24.700;2023-08-21T00:31:09;7.13;;;6.43;;
6093;SDS011;19964;42.060;24.700;2023-08-21T00:33:36;7.97;;;6.97;;
6093;SDS011;19964;42.060;24.700;2023-08-21T00:36:04;7.05;;;6.45;;
6093;SDS011;19964;42.060;24.700;2023-08-21T00:38:31;9.40;;;6.53;;
6093;SDS011;19964;42.060;24.700;2023-08-21T00:40:58;7.43;;;6.63;;
6093;SDS011;19964;42.060;24.700;2023-08-21T00:43:25;8.13;;;6.85;;
6093;SDS011;19964;42.060;24.700;2023-08-21T00:45:52;6.95;;;6.32;;
6093;SDS011;19964;42.060;24.700;2023-08-21T00:48:19;6.75;;;6.25;;
6093;SDS011;19964;42.060;24.700;2023-08-21T00:50:46;7.82;;;7.07;;
6093;SDS011;19964;42.060;24.700;2023-08-21T00:53:14;9.95;;;6.32;;
6093;SDS011;19964;42.060;24.700;2023-08-21T00:55:41;7.38;;;6.78;;
6093;SDS011;19964;42.060;24.700;2023-08-21T00:58:09;8.35;;;7.10;;
6093;SDS011;19964;42.060;24.700;2023-08-21T01:00:38;8.68;;;6.75;;
6093;SDS011;19964;42.060;24.700;2023-08-21T01:03:05;7.78;;;7.07;;
6093;SDS011;19964;42.060;24.700;2023-08-21T01:05:32;7.13;;;6.50;;
6093;SDS011;19964;42.060;24.700;2023-08-21T01:08:01;9.07;;;7.28;;
6093;SDS011;19964;42.060;24.700;2023-08-21T01:10:37;7.93;;;7.13;;
6093;SDS011;19964;42.060;24.700;2023-08-21T01:13:11;8.40;;;7.60;;
6093;SDS011;19964;42.060;24.700;2023-08-21T01:15:46;7.55;;;7.00;;
6093;SDS011;19964;42.060;24.700;2023-08-21T01:18:17;8.55;;;7.05;;
6093;SDS011;19964;42.060;24.700;2023-08-21T01:20:44;9.63;;;6.97;;
6093;SDS011;19964;42.060;24.700;2023-08-21T01:23:25;8.27;;;7.50;;
6093;SDS011;19964;42.060;24.700;2023-08-21T01:25:59;9.88;;;7.40;;
6093;SDS011;19964;42.060;24.700;2023-08-21T01:28:28;8.07;;;7.28;;
6093;SDS011;19964;42.060;24.700;2023-08-21T01:30:58;7.30;;;6.60;;
6093;SDS011;19964;42.060;24.700;2023-08-21T01:33:29;10.98;;;7.22;;
6093;SDS011;19964;42.060;24.700;2023-08-21T01:35:59;7.90;;;7.20;;
6093;SDS011;19964;42.060;24.700;2023-08-21T01:38:33;8.82;;;8.07;;
6093;SDS011;19964;42.060;24.700;2023-08-21T01:41:00;12.38;;;7.75;;
6093;SDS011;19964;42.060;24.700;2023-08-21T01:43:28;7.90;;;7.18;;
6093;SDS011;19964;42.060;24.700;2023-08-21T01:45:54;8.43;;;7.35;;
6093;SDS011;19964;42.060;24.700;2023-08-21T01:48:22;7.72;;;7.22;;
6093;SDS011;19964;42.060;24.700;2023-08-21T01:50:48;7.95;;;7.10;;
6093;SDS011;19964;42.060;24.700;2023-08-21T01:53:15;8.30;;;7.45;;
6093;SDS011;19964;42.060;24.700;2023-08-21T01:55:43;7.93;;;7.13;;
6093;SDS011;19964;42.060;24.700;2023-08-21T01:58:10;8.05;;;7.25;;
6093;SDS011;19964;42.060;24.700;2023-08-21T02:00:37;7.70;;;6.97;;
6093;SDS011;19964;42.060;24.700;2023-08-21T02:03:04;7.80;;;7.10;;
6093;SDS011;19964;42.060;24.700;2023-08-21T02:05:36;7.72;;;7.13;;
6093;SDS011;19964;42.060;24.700;2023-08-21T02:08:04;8.30;;;7.10;;
6093;SDS011;19964;42.060;24.700;2023-08-21T02:10:31;7.97;;;7.18;;
6093;SDS011;19964;42.060;24.700;2023-08-21T02:12:59;7.57;;;6.97;;
6093;SDS011;19964;42.060;24.700;2023-08-21T02:15:26;8.07;;;6.88;;
6093;SDS011;19964;42.060;24.700;2023-08-21T02:17:53;12.30;;;7.65;;
6093;SDS011;19964;42.060;24.700;2023-08-21T02:20:20;14.02;;;8.35;;
6093;SDS011;19964;42.060;24.700;2023-08-21T02:22:46;8.27;;;7.10;;
6093;SDS011;19964;42.060;24.700;2023-08-21T02:25:13;13.95;;;7.10;;
6093;SDS011;19964;42.060;24.700;2023-08-21T02:27:40;7.90;;;7.30;;
6093;SDS011;19964;42.060;24.700;2023-08-21T02:30:09;9.25;;;8.27;;
6093;SDS011;19964;42.060;24.700;2023-08-21T02:32:36;8.82;;;8.10;;
6093;SDS011;19964;42.060;24.700;2023-08-21T02:35:05;8.13;;;7.40;;
6093;SDS011;19964;42.060;24.700;2023-08-21T02:37:32;8.18;;;7.18;;
6093;SDS011;19964;42.060;24.700;2023-08-21T02:39:59;10.90;;;7.80;;
6093;SDS011;19964;42.060;24.700;2023-08-21T02:42:26;11.13;;;7.25;;
6093;SDS011;19964;42.060;24.700;2023-08-21T02:44:53;9.00;;;8.10;;
6093;SDS011;19964;42.060;24.700;2023-08-21T02:47:21;8.43;;;7.43;;
6093;SDS011;19964;42.060;24.700;2023-08-21T02:49:48;8.15;;;7.47;;
6093;SDS011;19964;42.060;24.700;2023-08-21T02:52:14;8.05;;;7.45;;
6093;SDS011;19964;42.060;24.700;2023-08-21T02:54:41;7.13;;;6.47;;
6093;SDS011;19964;42.060;24.700;2023-08-21T02:57:08;7.88;;;7.20;;
6093;SDS011;19964;42.060;24.700;2023-08-21T02:59:35;7.97;;;7.25;;
6093;SDS011;19964;42.060;24.700;2023-08-21T03:02:02;7.95;;;7.20;;
6093;SDS011;19964;42.060;24.700;2023-08-21T03:04:30;8.15;;;7.35;;
6093;SDS011;19964;42.060;24.700;2023-08-21T03:06:57;9.63;;;7.63;;
6093;SDS011;19964;42.060;24.700;2023-08-21T03:09:24;8.80;;;7.90;;
6093;SDS011;19964;42.060;24.700;2023-08-21T03:11:50;8.10;;;7.35;;
6093;SDS011;19964;42.060;24.700;2023-08-21T03:14:17;9.80;;;7.57;;
6093;SDS011;19964;42.060;24.700;2023-08-21T03:16:44;7.63;;;7.03;;
6093;SDS011;19964;42.060;24.700;2023-08-21T03:19:11;7.68;;;7.03;;
6093;SDS011;19964;42.060;24.700;2023-08-21T03:21:39;6.95;;;6.43;;
6093;SDS011;19964;42.060;24.700;2023-08-21T03:24:06;8.43;;;7.20;;
6093;SDS011;19964;42.060;24.700;2023-08-21T03:26:33;7.43;;;6.72;;
6093;SDS011;19964;42.060;24.700;2023-08-21T03:29:00;7.88;;;7.03;;
6093;SDS011;19964;42.060;24.700;2023-08-21T03:31:27;7.82;;;7.03;;
6093;SDS011;19964;42.060;24.700;2023-08-21T03:33:53;7.75;;;7.22;;
6093;SDS011;19964;42.060;24.700;2023-08-21T03:36:20;8.77;;;7.20;;
6093;SDS011;19964;42.060;24.700;2023-08-21T03:38:50;7.65;;;7.03;;
6093;SDS011;19964;42.060;24.700;2023-08-21T03:41:16;11.10;;;7.10;;
6093;SDS011;19964;42.060;24.700;2023-08-21T03:43:43;7.88;;;6.90;;
6093;SDS011;19964;42.060;24.700;2023-08-21T03:46:10;7.47;;;6.72;;
6093;SDS011;19964;42.060;24.700;2023-08-21T03:48:37;9.05;;;7.35;;
6093;SDS011;19964;42.060;24.700;2023-08-21T03:51:03;8.23;;;7.15;;
6093;SDS011;19964;42.060;24.700;2023-08-21T03:53:30;8.10;;;7.35;;
6093;SDS011;19964;42.060;24.700;2023-08-21T03:55:58;7.35;;;6.43;;
6093;SDS011;19964;42.060;24.700;2023-08-21T03:58:25;7.55;;;6.97;;
6093;SDS011;19964;42.060;24.700;2023-08-21T04:00:52;8.10;;;6.70;;
6093;SDS011;19964;42.060;24.700;2023-08-21T04:03:19;9.38;;;7.13;;
6093;SDS011;19964;42.060;24.700;2023-08-21T04:05:46;12.98;;;6.97;;
6093;SDS011;19964;42.060;24.700;2023-08-21T04:08:13;7.88;;;6.68;;
6093;SDS011;19964;42.060;24.700;2023-08-21T04:10:39;10.63;;;8.85;;
6093;SDS011;19964;42.060;24.700;2023-08-21T04:13:08;8.30;;;7.50;;
6093;SDS011;19964;42.060;24.700;2023-08-21T04:15:35;8.80;;;6.80;;
6093;SDS011;19964;42.060;24.700;2023-08-21T04:18:02;7.75;;;6.85;;
6093;SDS011;19964;42.060;24.700;2023-08-21T04:20:29;8.15;;;6.60;;
6093;SDS011;19964;42.060;24.700;2023-08-21T04:22:56;8.00;;;6.93;;
6093;SDS011;19964;42.060;24.700;2023-08-21T04:25:23;7.25;;;6.50;;
6093;SDS011;19964;42.060;24.700;2023-08-21T04:27:50;8.68;;;6.85;;
6093;SDS011;19964;42.060;24.700;2023-08-21T04:30:18;8.55;;;6.72;;
6093;SDS011;19964;42.060;24.700;2023-08-21T04:32:45;7.63;;;6.63;;
6093;SDS011;19964;42.060;24.700;2023-08-21T04:35:13;7.63;;;6.45;;
6093;SDS011;19964;42.060;24.700;2023-08-21T04:37:42;6.88;;;6.35;;
6093;SDS011;19964;42.060;24.700;2023-08-21T04:40:10;7.22;;;6.50;;
6093;SDS011;19964;42.060;24.700;2023-08-21T04:42:37;8.30;;;6.55;;
6093;SDS011;19964;42.060;24.700;2023-08-21T04:45:05;7.32;;;6.68;;
6093;SDS011;19964;42.060;24.700;2023-08-21T04:47:33;7.55;;;6.85;;
6093;SDS011;19964;42.060;24.700;2023-08-21T04:50:00;6.80;;;6.30;;
6093;SDS011;19964;42.060;24.700;2023-08-21T04:52:27;6.72;;;6.13;;
6093;SDS011;19964;42.060;24.700;2023-08-21T04:54:54;7.00;;;6.30;;
6093;SDS011;19964;42.060;24.700;2023-08-21T04:57:21;6.53;;;6.03;;
6093;SDS011;19964;42.060;24.700;2023-08-21T04:59:48;8.55;;;6.70;;
6093;SDS011;19964;42.060;24.700;2023-08-21T05:02:15;6.90;;;6.30;;
6093;SDS011;19964;42.060;24.700;2023-08-21T05:04:43;6.40;;;5.90;;
6093;SDS011;19964;42.060;24.700;2023-08-21T05:07:10;6.88;;;6.18;;
6093;SDS011;19964;42.060;24.700;2023-08-21T05:09:37;9.25;;;6.32;;
6093;SDS011;19964;42.060;24.700;2023-08-21T05:12:05;7.18;;;6.10;;
6093;SDS011;19964;42.060;24.700;2023-08-21T05:14:34;7.63;;;6.93;;
6093;SDS011;19964;42.060;24.700;2023-08-21T05:17:01;6.85;;;5.70;;
6093;SDS011;19964;42.060;24.700;2023-08-21T05:19:29;7.38;;;6.43;;
6093;SDS011;19964;42.060;24.700;2023-08-21T05:21:57;6.75;;;6.05;;
6093;SDS011;19964;42.060;24.700;2023-08-21T05:24:24;7.72;;;6.53;;
6093;SDS011;19964;42.060;24.700;2023-08-21T05:26:50;6.80;;;6.05;;
6093;SDS011;19964;42.060;24.700;2023-08-21T05:29:17;7.93;;;6.10;;
6093;SDS011;19964;42.060;24.700;2023-08-21T05:31:44;7.22;;;5.47;;
6093;SDS011;19964;42.060;24.700;2023-08-21T05:34:11;6.55;;;5.97;;
6093;SDS011;19964;42.060;24.700;2023-08-21T05:36:38;9.43;;;6.03;;
6093;SDS011;19964;42.060;24.700;2023-08-21T05:39:07;9.88;;;6.10;;
6093;SDS011;19964;42.060;24.700;2023-08-21T05:41:34;8.27;;;5.80;;
6093;SDS011;19964;42.060;24.700;2023-08-21T05:44:02;6.15;;;5.65;;
6093;SDS011;19964;42.060;24.700;2023-08-21T05:46:29;6.38;;;5.60;;
6093;SDS011;19964;42.060;24.700;2023-08-21T05:48:55;6.15;;;5.40;;
6093;SDS011;19964;42.060;24.700;2023-08-21T05:51:22;6.13;;;5.53;;
6093;SDS011;19964;42.060;24.700;2023-08-21T05:53:49;7.28;;;5.97;;
6093;SDS011;19964;42.060;24.700;2023-08-21T05:56:17;7.30;;;5.82;;
6093;SDS011;19964;42.060;24.700;2023-08-21T05:58:44;6.40;;;5.32;;
6093;SDS011;19964;42.060;24.700;2023-08-21T06:01:11;6.45;;;5.95;;
6093;SDS011;19964;42.060;24.700;2023-08-21T06:03:38;6.32;;;5.25;;
6093;SDS011;19964;42.060;24.700;2023-08-21T06:06:04;8.40;;;5.80;;
6093;SDS011;19964;42.060;24.700;2023-08-21T06:08:31;5.78;;;5.38;;
6093;SDS011;19964;42.060;24.700;2023-08-21T06:10:58;7.43;;;5.50;;
6093;SDS011;19964;42.060;24.700;2023-08-21T06:13:26;5.60;;;5.20;;
6093;SDS011;19964;42.060;24.700;2023-08-21T06:15:53;8.75;;;5.22;;
6093;SDS011;19964;42.060;24.700;2023-08-21T06:18:20;5.90;;;5.45;;
6093;SDS011;19964;42.060;24.700;2023-08-21T06:20:47;9.18;;;5.72;;
6093;SDS011;19964;42.060;24.700;2023-08-21T06:23:18;9.88;;;5.80;;
6093;SDS011;19964;42.060;24.700;2023-08-21T06:25:45;5.88;;;5.38;;
6093;SDS011;19964;42.060;24.700;2023-08-21T06:28:14;7.45;;;5.28;;
6093;SDS011;19964;42.060;24.700;2023-08-21T06:30:42;6.40;;;5.80;;
6093;SDS011;19964;42.060;24.700;2023-08-21T06:33:09;5.65;;;5.15;;
6093;SDS011;19964;42.060;24.700;2023-08-21T06:35:36;5.70;;;5.20;;
6093;SDS011;19964;42.060;24.700;2023-08-21T06:38:03;5.60;;;5.10;;
6093;SDS011;19964;42.060;24.700;2023-08-21T06:40:30;7.93;;;5.40;;
6093;SDS011;19964;42.060;24.700;2023-08-21T06:42:57;5.35;;;4.95;;
6093;SDS011;19964;42.060;24.700;2023-08-21T06:45:24;5.43;;;5.00;;
6093;SDS011;19964;42.060;24.700;2023-08-21T06:47:54;5.72;;;4.97;;
6093;SDS011;19964;42.060;24.700;2023-08-21T06:50:21;7.22;;;5.38;;
6093;SDS011;19964;42.060;24.700;2023-08-21T06:52:48;5.70;;;5.30;;
6093;SDS011;19964;42.060;24.700;2023-08-21T06:55:15;8.80;;;5.95;;
6093;SDS011;19964;42.060;24.700;2023-08-21T06:57:42;6.75;;;5.60;;
6093;SDS011;19964;42.060;24.700;2023-08-21T07:00:09;7.72;;;5.03;;
6093;SDS011;19964;42.060;24.700;2023-08-21T07:02:37;6.43;;;5.82;;
6093;SDS011;19964;42.060;24.700;2023-08-21T07:05:05;6.07;;;5.68;;
6093;SDS011;19964;42.060;24.700;2023-08-21T07:07:33;8.82;;;5.53;;
6093;SDS011;19964;42.060;24.700;2023-08-21T07:10:00;5.78;;;5.38;;
6093;SDS011;19964;42.060;24.700;2023-08-21T07:12:28;8.00;;;5.50;;
6093;SDS011;19964;42.060;24.700;2023-08-21T07:14:55;7.72;;;5.45;;
6093;SDS011;19964;42.060;24.700;2023-08-21T07:17:22;5.30;;;5.00;;
6093;SDS011;19964;42.060;24.700;2023-08-21T07:19:49;6.10;;;5.60;;
6093;SDS011;19964;42.060;24.700;2023-08-21T07:22:19;6.00;;;4.82;;
6093;SDS011;19964;42.060;24.700;2023-08-21T07:24:45;5.72;;;5.22;;
6093;SDS011;19964;42.060;24.700;2023-08-21T07:27:12;7.85;;;5.50;;
6093;SDS011;19964;42.060;24.700;2023-08-21T07:29:39;9.07;;;5.25;;
6093;SDS011;19964;42.060;24.700;2023-08-21T07:32:06;6.97;;;5.00;;
6093;SDS011;19964;42.060;24.700;2023-08-21T07:34:33;5.43;;;5.00;;
6093;SDS011;19964;42.060;24.700;2023-08-21T07:37:00;7.85;;;5.07;;
6093;SDS011;19964;42.060;24.700;2023-08-21T07:39:28;5.45;;;4.68;;
6093;SDS011;19964;42.060;24.700;2023-08-21T07:41:55;7.13;;;4.93;;
6093;SDS011;19964;42.060;24.700;2023-08-21T07:44:21;4.80;;;4.40;;
6093;SDS011;19964;42.060;24.700;2023-08-21T07:46:48;7.13;;;4.63;;
6093;SDS011;19964;42.060;24.700;2023-08-21T07:49:15;5.00;;;4.60;;
6093;SDS011;19964;42.060;24.700;2023-08-21T07:51:42;9.45;;;5.10;;
6093;SDS011;19964;42.060;24.700;2023-08-21T07:54:08;9.85;;;4.90;;
6093;SDS011;19964;42.060;24.700;2023-08-21T07:56:37;5.85;;;4.72;;
6093;SDS011;19964;42.060;24.700;2023-08-21T07:59:06;6.03;;;4.70;;
6093;SDS011;19964;42.060;24.700;2023-08-21T08:01:32;8.63;;;4.47;;
6093;SDS011;19964;42.060;24.700;2023-08-21T08:03:59;9.23;;;4.97;;
6093;SDS011;19964;42.060;24.700;2023-08-21T08:06:26;7.50;;;4.40;;
6093;SDS011;19964;42.060;24.700;2023-08-21T08:08:54;7.18;;;4.88;;
6093;SDS011;19964;42.060;24.700;2023-08-21T08:11:21;5.22;;;4.82;;
6093;SDS011;19964;42.060;24.700;2023-08-21T08:13:49;6.70;;;4.90;;
6093;SDS011;19964;42.060;24.700;2023-08-21T08:16:16;9.95;;;4.80;;
6093;SDS011;19964;42.060;24.700;2023-08-21T08:18:43;5.45;;;4.60;;
6093;SDS011;19964;42.060;24.700;2023-08-21T08:21:10;5.20;;;4.63;;
6093;SDS011;19964;42.060;24.700;2023-08-21T08:23:37;5.68;;;4.82;;
6093;SDS011;19964;42.060;24.700;2023-08-21T08:26:03;6.28;;;4.93;;
6093;SDS011;19964;42.060;24.700;2023-08-21T08:28:30;7.18;;;5.10;;
6093;SDS011;19964;42.060;24.700;2023-08-21T08:31:00;6.25;;;4.93;;
6093;SDS011;19964;42.060;24.700;2023-08-21T08:33:27;7.95;;;5.32;;
6093;SDS011;19964;42.060;24.700;2023-08-21T08:35:54;5.88;;;5.10;;
6093;SDS011;19964;42.060;24.700;2023-08-21T08:38:21;5.57;;;5.18;;
6093;SDS011;19964;42.060;24.700;2023-08-21T08:40:47;6.15;;;4.90;;
6093;SDS011;19964;42.060;24.700;2023-08-21T08:43:20;8.10;;;5.03;;
6093;SDS011;19964;42.060;24.700;2023-08-21T08:45:49;10.30;;;5.35;;
6093;SDS011;19964;42.060;24.700;2023-08-21T08:48:20;7.53;;;4.90;;
6093;SDS011;19964;42.060;24.700;2023-08-21T08:50:48;9.32;;;5.15;;
6093;SDS011;19964;42.060;24.700;2023-08-21T08:53:17;11.10;;;5.10;;
6093;SDS011;19964;42.060;24.700;2023-08-21T08:55:45;6.63;;;5.18;;
6093;SDS011;19964;42.060;24.700;2023-08-21T08:58:11;8.82;;;4.97;;
6093;SDS011;19964;42.060;24.700;2023-08-21T09:00:38;8.88;;;5.10;;
6093;SDS011;19964;42.060;24.700;2023-08-21T09:03:05;9.07;;;5.05;;
6093;SDS011;19964;42.060;24.700;2023-08-21T09:05:34;7.15;;;5.32;;
6093;SDS011;19964;42.060;24.700;2023-08-21T09:08:09;6.75;;;5.03;;
6093;SDS011;19964;42.060;24.700;2023-08-21T09:10:37;6.20;;;5.60;;
6093;SDS011;19964;42.060;24.700;2023-08-21T09:13:08;8.40;;;5.40;;
6093;SDS011;19964;42.060;24.700;2023-08-21T09:15:37;7.20;;;5.00;;
6093;SDS011;19964;42.060;24.700;2023-08-21T09:18:04;6.03;;;5.43;;
6093;SDS011;19964;42.060;24.700;2023-08-21T09:20:35;7.05;;;5.70;;
6093;SDS011;19964;42.060;24.700;2023-08-21T09:23:03;10.05;;;5.22;;
6093;SDS011;19964;42.060;24.700;2023-08-21T09:25:33;6.68;;;5.05;;
6093;SDS011;19964;42.060;24.700;2023-08-21T09:28:01;6.85;;;5.22;;
6093;SDS011;19964;42.060;24.700;2023-08-21T09:30:43;6.97;;;5.32;;
6093;SDS011;19964;42.060;24.700;2023-08-21T09:33:11;11.63;;;5.00;;
6093;SDS011;19964;42.060;24.700;2023-08-21T09:35:39;6.50;;;5.15;;
6093;SDS011;19964;42.060;24.700;2023-08-21T09:38:07;6.82;;;5.45;;
6093;SDS011;19964;42.060;24.700;2023-08-21T09:40:41;6.88;;;5.15;;
6093;SDS011;19964;42.060;24.700;2023-08-21T09:43:08;8.02;;;5.20;;
6093;SDS011;19964;42.060;24.700;2023-08-21T09:45:36;7.32;;;5.50;;
6093;SDS011;19964;42.060;24.700;2023-08-21T09:48:03;6.03;;;5.63;;
6093;SDS011;19964;42.060;24.700;2023-08-21T09:50:31;12.95;;;5.57;;
6093;SDS011;19964;42.060;24.700;2023-08-21T09:53:01;7.32;;;5.38;;
6093;SDS011;19964;42.060;24.700;2023-08-21T09:55:29;8.35;;;5.20;;
6093;SDS011;19964;42.060;24.700;2023-08-21T09:57:58;7.75;;;5.20;;
6093;SDS011;19964;42.060;24.700;2023-08-21T10:00:29;5.90;;;5.50;;
6093;SDS011;19964;42.060;24.700;2023-08-21T10:02:58;6.90;;;5.10;;
6093;SDS011;19964;42.060;24.700;2023-08-21T10:05:27;7.65;;;5.25;;
6093;SDS011;19964;42.060;24.700;2023-08-21T10:07:55;5.80;;;5.20;;
6093;SDS011;19964;42.060;24.700;2023-08-21T10:10:24;8.63;;;5.20;;
6093;SDS011;19964;42.060;24.700;2023-08-21T10:12:51;5.55;;;5.15;;
6093;SDS011;19964;42.060;24.700;2023-08-21T10:15:18;12.65;;;5.80;;
6093;SDS011;19964;42.060;24.700;2023-08-21T10:17:45;6.00;;;5.28;;
6093;SDS011;19964;42.060;24.700;2023-08-21T10:20:11;6.50;;;5.22;;
6093;SDS011;19964;42.060;24.700;2023-08-21T10:22:39;6.25;;;5.55;;
6093;SDS011;19964;42.060;24.700;2023-08-21T10:25:15;9.65;;;5.30;;
6093;SDS011;19964;42.060;24.700;2023-08-21T10:27:44;8.65;;;5.10;;
6093;SDS011;19964;42.060;24.700;2023-08-21T10:30:14;7.20;;;5.20;;
6093;SDS011;19964;42.060;24.700;2023-08-21T10:32:44;8.35;;;5.47;;
6093;SDS011;19964;42.060;24.700;2023-08-21T10:35:15;6.85;;;5.15;;
6093;SDS011;19964;42.060;24.700;2023-08-21T10:41:03;6.00;;;5.35;;
6093;SDS011;19964;42.060;24.700;2023-08-21T10:43:39;5.55;;;5.10;;
6093;SDS011;19964;42.060;24.700;2023-08-21T10:46:08;7.57;;;5.45;;
6093;SDS011;19964;42.060;24.700;2023-08-21T10:48:35;6.40;;;5.00;;
6093;SDS011;19964;42.060;24.700;2023-08-21T10:51:05;8.65;;;5.70;;
6093;SDS011;19964;42.060;24.700;2023-08-21T10:53:34;5.97;;;5.47;;
6093;SDS011;19964;42.060;24.700;2023-08-21T10:56:01;5.88;;;5.28;;
6093;SDS011;19964;42.060;24.700;2023-08-21T10:58:29;7.55;;;5.25;;
6093;SDS011;19964;42.060;24.700;2023-08-21T11:01:02;5.97;;;5.20;;
6093;SDS011;19964;42.060;24.700;2023-08-21T11:03:29;5.00;;;4.55;;
6093;SDS011;19964;42.060;24.700;2023-08-21T11:06:02;5.68;;;5.00;;
6093;SDS011;19964;42.060;24.700;2023-08-21T11:08:31;6.38;;;5.20;;
6093;SDS011;19964;42.060;24.700;2023-08-21T11:10:58;8.57;;;5.00;;
6093;SDS011;19964;42.060;24.700;2023-08-21T11:13:25;5.32;;;4.65;;
6093;SDS011;19964;42.060;24.700;2023-08-21T11:15:58;10.65;;;4.95;;
6093;SDS011;19964;42.060;24.700;2023-08-21T11:18:33;7.03;;;4.85;;
6093;SDS011;19964;42.060;24.700;2023-08-21T11:21:06;8.88;;;5.03;;
6093;SDS011;19964;42.060;24.700;2023-08-21T11:23:34;7.63;;;5.22;;
6093;SDS011;19964;42.060;24.700;2023-08-21T11:26:02;5.40;;;4.90;;
6093;SDS011;19964;42.060;24.700;2023-08-21T11:28:29;9.20;;;4.72;;
6093;SDS011;19964;42.060;24.700;2023-08-21T11:30:57;7.63;;;5.35;;
6093;SDS011;19964;42.060;24.700;2023-08-21T11:33:25;5.93;;;5.00;;
6093;SDS011;19964;42.060;24.700;2023-08-21T11:35:54;6.15;;;4.80;;
6093;SDS011;19964;42.060;24.700;2023-08-21T11:38:23;8.75;;;4.90;;
6093;SDS011;19964;42.060;24.700;2023-08-21T11:40:51;5.53;;;4.78;;
6093;SDS011;19964;42.060;24.700;2023-08-21T11:43:19;8.68;;;4.65;;
6093;SDS011;19964;42.060;24.700;2023-08-21T11:45:46;8.80;;;4.72;;
6093;SDS011;19964;42.060;24.700;2023-08-21T11:48:14;10.32;;;4.95;;
6093;SDS011;19964;42.060;24.700;2023-08-21T11:50:41;4.93;;;4.40;;
6093;SDS011;19964;42.060;24.700;2023-08-21T11:53:09;5.70;;;4.53;;
6093;SDS011;19964;42.060;24.700;2023-08-21T11:55:37;5.38;;;4.78;;
6093;SDS011;19964;42.060;24.700;2023-08-21T11:58:05;7.30;;;4.90;;
6093;SDS011;19964;42.060;24.700;2023-08-21T12:00:32;5.60;;;4.85;;
6093;SDS011;19964;42.060;24.700;2023-08-21T12:02:59;8.20;;;4.75;;
6093;SDS011;19964;42.060;24.700;2023-08-21T12:05:28;8.35;;;5.20;;
6093;SDS011;19964;42.060;24.700;2023-08-21T12:07:55;6.72;;;4.90;;
6093;SDS011;19964;42.060;24.700;2023-08-21T12:10:24;8.65;;;4.80;;
6093;SDS011;19964;42.060;24.700;2023-08-21T12:12:50;5.95;;;5.03;;
6093;SDS011;19964;42.060;24.700;2023-08-21T12:15:18;5.50;;;4.93;;
6093;SDS011;19964;42.060;24.700;2023-08-21T12:17:45;8.45;;;4.80;;
6093;SDS011;19964;42.060;24.700;2023-08-21T12:20:12;5.88;;;5.30;;
6093;SDS011;19964;42.060;24.700;2023-08-21T12:22:39;5.43;;;4.90;;
6093;SDS011;19964;42.060;24.700;2023-08-21T12:25:07;8.35;;;4.90;;
6093;SDS011;19964;42.060;24.700;2023-08-21T12:27:36;12.25;;;5.30;;
6093;SDS011;19964;42.060;24.700;2023-08-21T12:30:03;6.05;;;4.90;;
6093;SDS011;19964;42.060;24.700;2023-08-21T12:32:31;9.25;;;4.85;;
6093;SDS011;19964;42.060;24.700;2023-08-21T12:34:58;7.72;;;5.03;;
6093;SDS011;19964;42.060;24.700;2023-08-21T12:37:25;10.95;;;4.80;;
6093;SDS011;19964;42.060;24.700;2023-08-21T12:39:53;7.03;;;4.88;;
6093;SDS011;19964;42.060;24.700;2023-08-21T12:42:20;7.68;;;4.95;;
6093;SDS011;19964;42.060;24.700;2023-08-21T12:44:48;7.53;;;5.28;;
6093;SDS011;19964;42.060;24.700;2023-08-21T12:47:15;7.80;;;4.85;;
6093;SDS011;19964;42.060;24.700;2023-08-21T12:49:41;5.30;;;4.80;;
6093;SDS011;19964;42.060;24.700;2023-08-21T12:52:08;9.13;;;5.20;;
6093;SDS011;19964;42.060;24.700;2023-08-21T12:54:37;10.82;;;4.93;;
6093;SDS011;19964;42.060;24.700;2023-08-21T12:57:04;8.18;;;4.57;;
6093;SDS011;19964;42.060;24.700;2023-08-21T12:59:32;6.22;;;4.88;;
6093;SDS011;19964;42.060;24.700;2023-08-21T13:02:00;10.32;;;4.65;;
6093;SDS011;19964;42.060;24.700;2023-08-21T13:04:27;7.53;;;4.55;;
6093;SDS011;19964;42.060;24.700;2023-08-21T13:06:54;4.75;;;4.32;;
6093;SDS011;19964;42.060;24.700;2023-08-21T13:09:21;7.35;;;4.05;;
6093;SDS011;19964;42.060;24.700;2023-08-21T13:11:50;7.60;;;4.15;;
6093;SDS011;19964;42.060;24.700;2023-08-21T13:14:17;9.05;;;4.30;;
6093;SDS011;19964;42.060;24.700;2023-08-21T13:16:43;4.57;;;4.28;;
6093;SDS011;19964;42.060;24.700;2023-08-21T13:19:12;6.63;;;4.80;;
6093;SDS011;19964;42.060;24.700;2023-08-21T13:21:38;6.97;;;4.88;;
6093;SDS011;19964;42.060;24.700;2023-08-21T13:24:05;8.63;;;5.35;;
6093;SDS011;19964;42.060;24.700;2023-08-21T13:26:32;7.07;;;5.10;;
6093;SDS011;19964;42.060;24.700;2023-08-21T13:28:59;7.85;;;4.68;;
6093;SDS011;19964;42.060;24.700;2023-08-21T13:31:26;7.18;;;4.43;;
6093;SDS011;19964;42.060;24.700;2023-08-21T13:33:53;6.57;;;4.68;;
6093;SDS011;19964;42.060;24.700;2023-08-21T13:36:22;9.25;;;4.82;;
6093;SDS011;19964;42.060;24.700;2023-08-21T13:38:49;6.20;;;4.90;;
6093;SDS011;19964;42.060;24.700;2023-08-21T13:41:15;8.25;;;5.10;;
6093;SDS011;19964;42.060;24.700;2023-08-21T13:43:42;6.35;;;5.72;;
6093;SDS011;19964;42.060;24.700;2023-08-21T13:46:09;6.00;;;5.40;;
6093;SDS011;19964;42.060;24.700;2023-08-21T13:48:37;14.10;;;5.60;;
6093;SDS011;19964;42.060;24.700;2023-08-21T13:51:04;8.10;;;5.72;;
6093;SDS011;19964;42.060;24.700;2023-08-21T13:53:32;9.15;;;5.75;;
6093;SDS011;19964;42.060;24.700;2023-08-21T13:55:59;6.82;;;5.95;;
6093;SDS011;19964;42.060;24.700;2023-08-21T13:58:25;10.25;;;6.72;;
6093;SDS011;19964;42.060;24.700;2023-08-21T14:00:52;7.63;;;6.63;;
6093;SDS011;19964;42.060;24.700;2023-08-21T14:03:20;7.40;;;6.50;;
6093;SDS011;19964;42.060;24.700;2023-08-21T14:05:47;7.07;;;6.38;;
6093;SDS011;19964;42.060;24.700;2023-08-21T14:08:14;7.18;;;6.57;;
6093;SDS011;19964;42.060;24.700;2023-08-21T14:10:42;9.30;;;6.57;;
6093;SDS011;19964;42.060;24.700;2023-08-21T14:13:09;6.97;;;6.00;;
6093;SDS011;19964;42.060;24.700;2023-08-21T14:15:37;7.20;;;6.53;;
6093;SDS011;19964;42.060;24.700;2023-08-21T14:18:04;8.02;;;7.32;;
6093;SDS011;19964;42.060;24.700;2023-08-21T14:20:30;8.43;;;7.07;;
6093;SDS011;19964;42.060;24.700;2023-08-21T14:22:57;11.90;;;6.72;;
6093;SDS011;19964;42.060;24.700;2023-08-21T14:25:24;8.23;;;6.65;;
6093;SDS011;19964;42.060;24.700;2023-08-21T14:27:52;7.60;;;6.85;;
6093;SDS011;19964;42.060;24.700;2023-08-21T14:30:20;8.05;;;7.10;;
6093;SDS011;19964;42.060;24.700;2023-08-21T14:32:47;7.25;;;6.47;;
6093;SDS011;19964;42.060;24.700;2023-08-21T14:35:13;9.27;;;7.20;;
6093;SDS011;19964;42.060;24.700;2023-08-21T14:37:40;6.55;;;6.05;;
6093;SDS011;19964;42.060;24.700;2023-08-21T14:40:07;8.90;;;7.00;;
6093;SDS011;19964;42.060;24.700;2023-08-21T14:42:35;9.27;;;6.70;;
6093;SDS011;19964;42.060;24.700;2023-08-21T14:45:03;9.63;;;6.60;;
6093;SDS011;19964;42.060;24.700;2023-08-21T14:47:31;8.98;;;6.63;;
6093;SDS011;19964;42.060;24.700;2023-08-21T14:49:58;16.23;;;6.35;;
6093;SDS011;19964;42.060;24.700;2023-08-21T14:52:24;8.35;;;6.38;;